createdAt,value
2023-01-19T00:03:06.847Z,21.30
2023-01-19T00:08:17.987Z,19.77
2023-01-19T00:13:20.008Z,21.67
2023-01-19T00:18:22.067Z,26.02
2023-01-19T00:23:24.375Z,25.83
2023-01-19T00:28:26.319Z,26.88
2023-01-19T00:33:28.760Z,26.30
2023-01-19T00:38:30.895Z,25.20
2023-01-19T00:43:32.891Z,15.93
2023-01-19T00:48:35.008Z,24.92
2023-01-19T00:53:37.012Z,32.10
2023-01-19T00:58:39.065Z,28.05
2023-01-19T01:03:41.353Z,32.88
2023-01-19T01:08:43.398Z,29.95
2023-01-19T01:13:45.364Z,26.30
2023-01-19T01:18:47.901Z,35.95
2023-01-19T01:23:49.932Z,34.58
2023-01-19T01:28:51.990Z,31.77
2023-01-19T01:33:54.033Z,26.42
2023-01-19T01:38:56.187Z,25.85
2023-01-19T01:44:00.306Z,30.40
2023-01-19T01:49:12.704Z,28.40
2023-01-19T01:54:28.073Z,22.48
2023-01-19T01:59:40.579Z,20.45
2023-01-19T02:04:49.600Z,19.38
2023-01-19T02:10:10.503Z,22.83
2023-01-19T02:15:17.693Z,24.08
2023-01-19T02:20:24.763Z,26.73
2023-01-19T02:25:27.241Z,23.33
2023-01-19T02:30:29.888Z,28.77
2023-01-19T02:35:33.250Z,26.55
2023-01-19T02:40:37.241Z,27.63
2023-01-19T02:45:40.502Z,25.65
2023-01-19T02:50:50.085Z,29.75
2023-01-19T02:56:01.681Z,28.40
2023-01-19T03:01:31.946Z,30.02
2023-01-19T03:06:39.729Z,29.13
2023-01-19T03:11:47.379Z,36.10
2023-01-19T03:16:57.764Z,25.80
2023-01-19T03:22:07.627Z,32.97
2023-01-19T03:27:18.781Z,30.80
2023-01-19T03:32:24.627Z,44.33
2023-01-19T03:37:29.870Z,38.78
2023-01-19T03:42:33.149Z,44.33
2023-01-19T03:47:36.765Z,31.30
2023-01-19T03:52:38.706Z,15.63
2023-01-19T03:57:40.908Z,25.92
2023-01-19T04:02:43.043Z,27.08
2023-01-19T04:07:45.155Z,22.83
2023-01-19T04:12:47.158Z,37.60
2023-01-19T04:17:49.161Z,31.35
2023-01-19T04:22:51.159Z,27.52
2023-01-19T04:27:53.985Z,22.20
2023-01-19T04:32:56.637Z,26.98
2023-01-19T04:37:58.654Z,34.83
2023-01-19T04:43:00.996Z,21.65
2023-01-19T04:48:07.233Z,26.33
2023-01-19T04:53:09.258Z,24.95
2023-01-19T04:58:11.327Z,24.58
2023-01-19T05:03:13.464Z,26.65
2023-01-19T05:08:15.647Z,25.15
2023-01-19T05:13:17.637Z,26.27
2023-01-19T05:18:19.674Z,25.23
2023-01-19T05:23:21.760Z,24.30
2023-01-19T05:28:23.927Z,28.60
2023-01-19T05:33:26.498Z,29.35
2023-01-19T05:38:35.143Z,32.85
2023-01-19T05:43:37.857Z,28.80
2023-01-19T05:48:40.310Z,22.52
2023-01-19T05:53:42.487Z,26.30
2023-01-19T05:58:44.593Z,25.33
2023-01-19T06:03:47.656Z,18.92
2023-01-19T06:13:51.714Z,25.70
2023-01-19T06:18:54.062Z,28.25
2023-01-19T06:23:56.123Z,26.38
2023-01-19T06:28:58.154Z,22.30
2023-01-19T06:34:00.117Z,24.85
2023-01-19T06:39:06.252Z,25.75
2023-01-19T06:44:08.413Z,26.40
2023-01-19T06:49:10.502Z,27.05
2023-01-19T06:54:12.651Z,26.23
2023-01-19T06:59:14.893Z,28.65
2023-01-19T07:04:16.924Z,30.77
2023-01-19T07:09:20.803Z,32.42
2023-01-19T07:14:22.921Z,36.42
2023-01-19T07:19:25.126Z,28.98
2023-01-19T07:24:27.130Z,46.28
2023-01-19T07:29:29.365Z,36.05
2023-01-19T07:34:31.568Z,39.53
2023-01-19T07:39:33.552Z,54.10
2023-01-19T07:44:35.570Z,31.85
2023-01-19T07:49:37.681Z,34.42
2023-01-19T07:54:39.764Z,23.73
2023-01-19T07:59:41.890Z,43.28
2023-01-19T08:04:43.989Z,42.22
2023-01-19T08:09:46.071Z,40.20
2023-01-19T08:14:48.158Z,40.05
2023-01-19T08:19:50.146Z,36.45
2023-01-19T08:24:52.411Z,42.92
2023-01-19T08:29:54.985Z,47.05
2023-01-19T08:34:57.058Z,39.22
2023-01-19T08:39:59.249Z,36.75
2023-01-19T08:45:01.388Z,28.50
2023-01-19T08:50:03.590Z,29.83
2023-01-19T08:55:06.338Z,26.92
2023-01-19T09:00:09.445Z,24.95
2023-01-19T09:05:11.435Z,26.08
2023-01-19T09:10:13.971Z,25.08
2023-01-19T09:15:16.212Z,27.65
2023-01-19T09:20:18.403Z,28.33
2023-01-19T09:25:21.053Z,28.33
2023-01-19T09:30:23.440Z,27.55
2023-01-19T09:35:25.665Z,24.90
2023-01-19T09:40:28.322Z,24.23
2023-01-19T09:45:46.352Z,32.88
2023-01-19T09:50:49.855Z,30.27
2023-01-19T09:55:51.792Z,26.60
2023-01-19T10:01:03.152Z,28.35
2023-01-19T10:06:09.711Z,25.95
2023-01-19T10:11:52.104Z,29.50
2023-01-19T10:17:33.139Z,36.90
2023-01-19T10:22:35.531Z,39.10
2023-01-19T10:27:38.745Z,36.70
2023-01-19T10:32:40.833Z,29.17
2023-01-19T10:37:45.002Z,27.77
2023-01-19T10:42:47.065Z,25.65
2023-01-19T10:47:50.143Z,26.67
2023-01-19T10:57:55.795Z,22.65
2023-01-19T11:02:58.041Z,24.52
2023-01-19T11:08:00.545Z,21.73
2023-01-19T11:13:12.825Z,25.30
2023-01-19T11:18:29.872Z,20.13
2023-01-19T11:23:42.254Z,20.33
2023-01-19T11:28:49.009Z,23.35
2023-01-19T11:33:53.356Z,19.77
2023-01-19T11:38:57.922Z,23.88
2023-01-19T11:44:22.447Z,24.42
2023-01-19T11:49:54.460Z,23.42
2023-01-19T11:55:12.743Z,29.23
2023-01-19T12:00:38.770Z,29.23
2023-01-19T12:05:48.123Z,35.95
2023-01-19T12:10:53.333Z,26.38
2023-01-19T12:16:13.963Z,22.98
2023-01-19T12:21:16.068Z,27.25
2023-01-19T12:26:18.097Z,33.42
2023-01-19T12:31:23.002Z,27.08
2023-01-19T12:36:31.041Z,27.33
2023-01-19T12:41:41.372Z,25.42
2023-01-19T12:46:52.550Z,22.70
2023-01-19T12:52:27.076Z,20.70
2023-01-19T12:57:57.045Z,21.25
2023-01-19T13:03:05.453Z,23.73
2023-01-19T13:08:08.181Z,29.23
2023-01-19T13:13:28.380Z,29.08
2023-01-19T13:18:35.407Z,30.00
2023-01-19T13:23:52.311Z,30.90
2023-01-19T13:29:11.397Z,34.35
2023-01-19T13:34:40.903Z,28.52
2023-01-19T13:39:45.412Z,28.52
2023-01-19T13:44:54.986Z,26.95
2023-01-19T13:49:58.756Z,27.20
2023-01-19T13:55:03.953Z,34.47
2023-01-19T14:00:17.607Z,33.03
2023-01-19T14:05:29.222Z,41.42
2023-01-19T14:10:31.817Z,43.35
2023-01-19T14:15:35.321Z,45.40
2023-01-19T14:20:37.657Z,44.20
2023-01-19T14:25:45.216Z,31.40
2023-01-19T14:30:54.951Z,28.13
2023-01-19T14:35:57.137Z,46.65
2023-01-19T14:40:59.214Z,36.72
2023-01-19T14:46:01.533Z,45.42
2023-01-19T14:51:05.681Z,35.00
2023-01-19T14:56:08.105Z,32.28
2023-01-19T15:01:10.299Z,32.45
2023-01-19T15:06:16.020Z,40.13
2023-01-19T15:11:27.057Z,32.70
2023-01-19T15:16:32.503Z,32.53
2023-01-19T15:21:34.865Z,41.33
2023-01-19T15:26:39.127Z,32.22
2023-01-19T15:31:41.543Z,40.25
2023-01-19T15:36:44.137Z,41.72
2023-01-19T15:41:46.146Z,41.63
2023-01-19T15:46:48.221Z,37.13
2023-01-19T15:51:50.387Z,35.33
2023-01-19T15:56:53.147Z,46.60
2023-01-19T16:01:55.553Z,28.08
2023-01-19T16:06:57.951Z,30.65
2023-01-19T16:12:00.048Z,32.08
2023-01-19T16:17:02.331Z,28.75
2023-01-19T16:22:05.931Z,28.38
2023-01-19T16:27:09.307Z,30.40
2023-01-19T16:32:11.374Z,29.10
2023-01-19T16:37:13.458Z,31.10
2023-01-19T16:42:16.890Z,30.45
2023-01-19T16:47:18.979Z,26.75
2023-01-19T16:52:21.117Z,29.23
2023-01-19T16:57:24.823Z,28.00
2023-01-19T17:02:27.562Z,28.60
2023-01-19T17:07:29.917Z,31.85
2023-01-19T17:12:32.400Z,36.70
2023-01-19T17:17:36.729Z,32.53
2023-01-19T17:22:39.517Z,27.80
2023-01-19T17:27:48.919Z,27.08
2023-01-19T17:32:51.541Z,33.63
2023-01-19T17:37:55.423Z,42.17
2023-01-19T17:42:57.723Z,35.55
2023-01-19T17:48:00.682Z,26.98
2023-01-19T17:53:03.929Z,29.73
2023-01-19T17:58:06.810Z,27.48
2023-01-19T18:03:11.235Z,25.73
2023-01-19T18:08:14.472Z,30.88
2023-01-19T18:13:17.345Z,25.92
2023-01-19T18:18:22.991Z,24.00
2023-01-19T18:23:32.259Z,24.67
2023-01-19T18:28:35.574Z,20.40
2023-01-19T18:33:40.151Z,20.20
2023-01-19T18:38:44.024Z,22.77
2023-01-19T18:43:57.532Z,23.90
2023-01-19T18:49:03.365Z,29.33
2023-01-19T18:54:17.665Z,26.67
2023-01-19T18:59:20.874Z,26.52
2023-01-19T19:04:29.883Z,25.58
2023-01-19T19:09:36.107Z,27.95
2023-01-19T19:14:39.467Z,25.10
2023-01-19T19:19:43.005Z,29.25
2023-01-19T19:24:46.102Z,28.52
2023-01-19T19:29:49.624Z,28.80
2023-01-19T19:35:01.356Z,33.40
2023-01-19T19:40:08.121Z,27.02
2023-01-19T19:45:20.082Z,28.80
2023-01-19T19:50:23.860Z,24.40
2023-01-19T19:55:34.120Z,24.33
2023-01-19T20:00:37.486Z,24.23
2023-01-19T20:05:45.481Z,33.30
2023-01-19T20:11:00.541Z,44.67
2023-01-19T20:16:08.446Z,47.72
2023-01-19T20:21:17.747Z,38.45
2023-01-19T20:26:26.203Z,39.25
2023-01-19T20:31:34.693Z,45.72
2023-01-19T20:42:51.334Z,46.05
2023-01-19T20:47:56.680Z,45.75
2023-01-19T20:52:59.682Z,44.08
2023-01-19T20:58:04.624Z,46.95
2023-01-19T21:03:08.097Z,46.72
2023-01-19T21:08:10.599Z,42.47
2023-01-19T21:13:14.608Z,41.65
2023-01-19T21:18:18.128Z,40.30
2023-01-19T21:23:21.090Z,49.78
2023-01-19T21:28:39.617Z,42.28
2023-01-19T21:33:45.465Z,44.88
2023-01-19T21:38:53.893Z,38.25
2023-01-19T21:44:01.537Z,39.78
2023-01-19T21:49:16.189Z,40.83
2023-01-19T21:54:27.851Z,36.88
2023-01-19T21:59:32.525Z,32.60
2023-01-19T22:04:37.304Z,29.25
2023-01-19T22:09:40.154Z,33.28
2023-01-19T22:14:44.332Z,30.33
2023-01-19T22:19:49.479Z,26.65
2023-01-19T22:24:51.655Z,24.38
2023-01-19T22:29:54.103Z,29.00
2023-01-19T22:34:56.155Z,29.10
2023-01-19T22:39:58.193Z,26.95
2023-01-19T22:45:00.272Z,28.63
2023-01-19T22:50:02.519Z,26.33
2023-01-19T22:55:04.883Z,24.77
2023-01-19T23:00:09.502Z,25.02
2023-01-19T23:05:11.748Z,21.40
2023-01-19T23:10:15.736Z,21.85
2023-01-19T23:15:18.315Z,25.00
2023-01-19T23:20:20.945Z,16.20
2023-01-19T23:25:22.955Z,22.25
2023-01-19T23:30:25.108Z,20.73
2023-01-19T23:35:27.486Z,20.38
2023-01-19T23:40:29.610Z,24.10
2023-01-19T23:45:31.908Z,20.98
2023-01-19T23:50:33.979Z,20.20
2023-01-19T23:55:36.204Z,21.17
